Time;durP1;ratioP1;P1;durP2;ratioP2;P2;SDS_P1;SDS_P2;PMS_P1;PMS_P2;Temp;Humidity;BMP_temperature;BMP_pressure;BME280_temperature;BME280_humidity;BME280_pressure;Samples;Min_cycle;Max_cycle;Signal;HPM_P1;HPM_P2
2022/08/05 00:00:19;;;;;;;7.18;3.15;;;19.30;99.90;;;;;;5071857;28;20501;-52
2022/08/05 00:02:46;;;;;;;5.20;2.95;;;19.20;99.90;;;;;;5085040;28;20043;-51
2022/08/05 00:05:11;;;;;;;5.47;3.13;;;19.20;99.90;;;;;;5076436;28;20037;-50
2022/08/05 00:07:37;;;;;;;4.07;3.00;;;19.20;99.90;;;;;;5082873;28;20089;-52
2022/08/05 00:10:03;;;;;;;5.38;3.15;;;19.10;99.90;;;;;;5075199;28;20045;-53
2022/08/05 00:12:29;;;;;;;6.25;2.83;;;19.10;99.90;;;;;;5080529;28;20122;-53
2022/08/05 00:14:55;;;;;;;8.18;2.78;;;19.10;99.90;;;;;;5088253;28;20140;-51
2022/08/05 00:17:20;;;;;;;5.15;2.80;;;19.00;99.90;;;;;;5085089;28;20041;-51
2022/08/05 00:19:46;;;;;;;5.10;3.13;;;19.00;99.90;;;;;;5083108;28;20046;-53
2022/08/05 00:22:11;;;;;;;8.80;4.00;;;19.10;99.90;;;;;;5090834;28;20111;-54
2022/08/05 00:24:37;;;;;;;3.92;2.85;;;19.00;99.90;;;;;;5071370;28;20075;-53
2022/08/05 00:27:03;;;;;;;;;;;19.10;99.90;;;;;;5070903;28;20055;-49
2022/08/05 00:29:29;;;;;;;5.10;3.05;;;19.10;99.90;;;;;;5070698;28;19927;-51
2022/08/05 00:31:55;;;;;;;6.47;3.55;;;19.10;99.90;;;;;;5070172;28;20465;-51
2022/08/05 00:34:20;;;;;;;5.57;3.42;;;19.10;99.90;;;;;;5070119;28;20447;-52
2022/08/05 00:36:46;;;;;;;;;;;19.10;99.90;;;;;;5089802;28;20142;-48
2022/08/05 00:39:11;;;;;;;10.07;3.63;;;19.00;99.90;;;;;;5090980;28;20522;-55
2022/08/05 00:41:37;;;;;;;5.20;3.20;;;19.00;99.90;;;;;;5090710;28;20501;-52
2022/08/05 00:44:04;;;;;;;7.35;3.38;;;19.00;99.90;;;;;;5090028;28;20040;-53
2022/08/05 00:46:29;;;;;;;4.70;3.47;;;19.00;99.90;;;;;;5090009;28;20040;-52
2022/08/05 00:48:55;;;;;;;6.03;3.67;;;19.00;99.90;;;;;;5090419;28;20090;-49
2022/08/05 00:51:21;;;;;;;7.88;4.55;;;19.00;99.90;;;;;;5090760;28;20036;-51
2022/08/05 00:53:47;;;;;;;7.15;3.33;;;19.00;99.90;;;;;;5090133;28;20044;-51
2022/08/05 00:56:16;;;;;;;;;;;18.90;99.90;;;;;;5091119;28;20137;-54
2022/08/05 00:58:42;;;;;;;8.80;3.50;;;19.00;99.90;;;;;;5073296;28;19999;-51
2022/08/05 01:01:10;;;;;;;3.78;2.97;;;19.00;99.90;;;;;;5080386;28;20545;-52
2022/08/05 01:03:37;;;;;;;7.72;3.95;;;19.00;99.90;;;;;;5078887;28;20177;-49
2022/08/05 01:06:03;;;;;;;4.28;3.60;;;19.00;99.90;;;;;;5080754;28;20040;-47
2022/08/05 01:08:28;;;;;;;9.40;4.55;;;18.90;99.90;;;;;;5088284;28;20377;-50
2022/08/05 01:10:56;;;;;;;;;;;19.00;99.90;;;;;;5076738;28;20040;-48
2022/08/05 01:13:58;;;;;;;9.55;4.50;;;19.00;99.90;;;;;;5070637;28;19916;-54
2022/08/05 01:16:36;;;;;;;5.25;3.50;;;19.00;99.90;;;;;;5082350;28;20032;-51
2022/08/05 01:19:17;;;;;;;11.60;4.97;;;19.00;99.90;;;;;;5070982;28;20064;-52
2022/08/05 01:22:05;;;;;;;8.25;4.65;;;19.00;99.90;;;;;;5086776;28;20381;-54
2022/08/05 01:24:49;;;;;;;6.95;4.63;;;19.00;99.90;;;;;;5070880;28;20048;-53
2022/08/05 01:27:43;;;;;;;7.78;4.45;;;19.00;99.90;;;;;;5082590;28;20052;-50
2022/08/05 01:30:10;;;;;;;8.93;3.83;;;19.00;99.90;;;;;;5070738;28;20098;-49
2022/08/05 01:32:39;;;;;;;12.82;4.68;;;19.00;99.90;;;;;;5085670;28;20102;-52
2022/08/05 01:35:07;;;;;;;11.27;4.05;;;19.00;99.90;;;;;;5051675;28;20048;-52
2022/08/05 01:37:42;;;;;;;9.25;4.97;;;19.00;99.90;;;;;;5081028;28;20053;-52
2022/08/05 01:40:09;;;;;;;6.65;3.88;;;19.00;99.90;;;;;;5088444;28;20043;-49
2022/08/05 01:42:36;;;;;;;11.35;4.57;;;19.00;99.90;;;;;;5076907;28;20036;-48
2022/08/05 01:45:06;;;;;;;9.13;4.90;;;18.90;99.90;;;;;;5069761;28;20402;-53
2022/08/05 01:47:33;;;;;;;8.35;4.22;;;18.90;99.90;;;;;;5086542;28;20048;-50
2022/08/05 01:50:00;;;;;;;9.90;4.70;;;18.90;99.90;;;;;;5090533;28;20112;-50
2022/08/05 01:52:26;;;;;;;5.80;4.63;;;18.90;99.90;;;;;;5086117;28;20452;-50
2022/08/05 01:54:56;;;;;;;6.95;4.50;;;18.90;99.90;;;;;;5078116;28;20692;-49
2022/08/05 01:57:34;;;;;;;13.85;5.00;;;18.90;99.90;;;;;;5083254;28;20037;-51
2022/08/05 02:00:03;;;;;;;7.00;5.72;;;18.90;99.90;;;;;;5074620;28;20055;-52
2022/08/05 02:02:31;;;;;;;12.15;5.63;;;18.90;99.90;;;;;;5088622;28;20043;-52
2022/08/05 02:05:03;;;;;;;9.50;5.18;;;18.90;99.90;;;;;;5085765;28;20072;-48
2022/08/05 02:07:31;;;;;;;7.50;5.43;;;18.90;99.90;;;;;;5085257;28;20075;-48
2022/08/05 02:09:57;;;;;;;8.00;5.43;;;18.90;99.90;;;;;;5077509;28;20283;-52
2022/08/05 02:12:53;;;;;;;6.53;5.15;;;18.80;99.90;;;;;;5081839;28;20039;-47
2022/08/05 02:15:28;;;;;;;6.32;5.22;;;18.80;99.90;;;;;;5090883;28;20127;-48
2022/08/05 02:18:04;;;;;;;7.38;5.40;;;18.80;99.90;;;;;;5074067;28;20044;-48
2022/08/05 02:20:38;;;;;;;11.27;5.88;;;18.80;99.90;;;;;;5081701;28;20043;-51
2022/08/05 02:23:08;;;;;;;8.10;6.03;;;18.80;99.90;;;;;;5072508;28;20048;-50
2022/08/05 02:25:38;;;;;;;10.98;5.88;;;18.80;99.90;;;;;;5092264;28;20144;-50
2022/08/05 02:28:07;;;;;;;11.48;5.53;;;18.80;99.90;;;;;;5092716;28;20044;-49
2022/08/05 02:30:50;;;;;;;6.85;4.85;;;18.80;99.90;;;;;;5092906;28;20048;-50
2022/08/05 02:33:19;;;;;;;9.48;5.93;;;18.80;99.90;;;;;;5092373;28;20305;-52
2022/08/05 02:35:45;;;;;;;9.07;6.50;;;18.80;99.90;;;;;;5089985;28;20051;-50
2022/08/05 02:38:13;;;;;;;6.78;5.47;;;18.70;99.90;;;;;;5072306;28;20075;-53
2022/08/05 02:40:42;;;;;;;10.75;5.70;;;18.70;99.90;;;;;;5072528;28;20037;-54
2022/08/05 02:43:10;;;;;;;7.03;5.05;;;18.70;99.90;;;;;;5071748;28;20065;-49
2022/08/05 02:45:39;;;;;;;7.72;5.82;;;18.70;99.90;;;;;;5072378;28;20100;-53
2022/08/05 02:48:07;;;;;;;10.15;5.88;;;18.70;99.90;;;;;;5072382;28;20040;-52
2022/08/05 02:50:34;;;;;;;12.82;6.38;;;18.70;99.90;;;;;;5072584;28;20115;-50
2022/08/05 02:53:00;;;;;;;11.23;7.35;;;18.70;99.90;;;;;;5072920;28;20524;-50
2022/08/05 02:55:27;;;;;;;11.43;6.38;;;18.70;99.90;;;;;;5086125;28;20036;-49
2022/08/05 02:57:53;;;;;;;14.80;6.60;;;18.70;99.90;;;;;;5074205;28;20048;-50
2022/08/05 03:00:18;;;;;;;;;;;18.70;99.90;;;;;;5072651;28;20052;-52
2022/08/05 03:02:46;;;;;;;9.88;6.45;;;18.70;99.90;;;;;;5076618;28;19916;-47
2022/08/05 03:05:13;;;;;;;6.82;5.82;;;18.70;99.90;;;;;;5071823;28;20032;-48
2022/08/05 03:07:41;;;;;;;10.02;7.05;;;18.70;99.90;;;;;;5086857;28;20040;-53
2022/08/05 03:10:13;;;;;;;11.77;6.75;;;18.60;99.90;;;;;;5090376;28;20067;-49
2022/08/05 03:12:39;;;;;;;15.05;7.40;;;18.60;99.90;;;;;;5072973;28;20040;-48
2022/08/05 03:15:07;;;;;;;9.23;7.38;;;18.60;99.90;;;;;;5072641;28;20505;-49
2022/08/05 03:17:33;;;;;;;12.88;7.28;;;18.60;99.90;;;;;;5089010;28;20413;-48
2022/08/05 03:19:58;;;;;;;10.55;6.00;;;18.60;99.90;;;;;;5073320;28;20036;-48
2022/08/05 03:22:24;;;;;;;9.00;6.22;;;18.60;99.90;;;;;;5084674;28;20738;-48
2022/08/05 03:24:50;;;;;;;10.68;6.88;;;18.60;99.90;;;;;;5083948;28;20021;-47
2022/08/05 03:27:17;;;;;;;10.48;6.10;;;18.60;99.90;;;;;;5072849;28;20525;-51
2022/08/05 03:29:43;;;;;;;12.75;7.25;;;18.60;99.90;;;;;;5088184;28;20051;-48
2022/08/05 03:32:09;;;;;;;18.15;8.88;;;18.60;99.90;;;;;;5084255;28;20032;-52
2022/08/05 03:34:36;;;;;;;11.30;7.25;;;18.60;99.90;;;;;;5072272;28;20173;-51
2022/08/05 03:37:04;;;;;;;10.20;7.15;;;18.60;99.90;;;;;;5064048;28;20048;-50
2022/08/05 03:39:29;;;;;;;9.73;6.97;;;18.60;99.90;;;;;;5091187;28;20046;-50
2022/08/05 03:41:55;;;;;;;11.73;8.02;;;18.60;99.90;;;;;;5089240;28;20397;-48
2022/08/05 03:44:21;;;;;;;;;;;18.60;99.90;;;;;;5075331;28;20053;-52
2022/08/05 03:46:47;;;;;;;12.05;7.22;;;18.60;99.90;;;;;;5089433;28;20377;-53
2022/08/05 03:49:12;;;;;;;10.70;7.00;;;18.60;99.90;;;;;;5071928;28;20037;-50
2022/08/05 03:51:44;;;;;;;10.88;6.22;;;18.60;99.90;;;;;;5072178;28;20040;-46
2022/08/05 03:54:51;;;;;;;9.00;6.38;;;18.60;99.90;;;;;;5084138;28;20130;-51
2022/08/05 03:57:24;;;;;;;10.23;6.47;;;18.60;99.90;;;;;;5076254;28;20104;-49
2022/08/05 04:00:13;;;;;;;15.25;7.53;;;18.60;99.90;;;;;;5074240;28;20028;-50
2022/08/05 04:02:42;;;;;;;10.45;7.05;;;18.50;99.90;;;;;;5080197;28;20056;-51
2022/08/05 04:05:10;;;;;;;8.60;6.82;;;18.50;99.90;;;;;;5083518;28;20059;-47
2022/08/05 04:07:38;;;;;;;13.52;7.50;;;18.60;99.90;;;;;;5088649;28;20101;-52
2022/08/05 04:10:04;;;;;;;13.43;8.30;;;18.60;99.90;;;;;;5074620;28;20044;-47
2022/08/05 04:12:30;;;;;;;10.18;7.72;;;18.60;99.90;;;;;;5071673;28;20041;-51
2022/08/05 04:14:56;;;;;;;15.57;7.68;;;18.60;99.90;;;;;;5080328;28;20564;-50
2022/08/05 04:17:22;;;;;;;11.95;8.60;;;18.60;99.90;;;;;;5077989;28;20036;-48
2022/08/05 04:19:48;;;;;;;9.88;7.03;;;18.60;99.90;;;;;;5080998;28;20131;-51
2022/08/05 04:22:13;;;;;;;11.45;7.35;;;18.50;99.90;;;;;;5052812;28;20046;-48
2022/08/05 04:24:39;;;;;;;;;;;18.60;99.90;;;;;;5086764;28;20067;-50
2022/08/05 04:27:05;;;;;;;8.05;5.90;;;18.50;99.90;;;;;;5090634;28;19922;-48
2022/08/05 04:29:30;;;;;;;11.90;6.80;;;18.60;99.90;;;;;;5090140;28;20036;-49
2022/08/05 04:31:56;;;;;;;10.13;6.85;;;18.60;99.90;;;;;;5090837;28;20048;-51
2022/08/05 04:34:22;;;;;;;12.63;6.68;;;18.60;99.90;;;;;;5090373;28;20040;-50
2022/08/05 04:36:47;;;;;;;;;;;18.50;99.90;;;;;;5074645;28;20053;-52
2022/08/05 04:39:12;;;;;;;9.40;6.05;;;18.60;99.90;;;;;;5070234;28;20262;-51
2022/08/05 04:41:39;;;;;;;9.60;6.32;;;18.50;99.90;;;;;;5070327;28;20036;-53
2022/08/05 04:44:05;;;;;;;9.68;6.65;;;18.50;99.90;;;;;;5069495;28;20518;-49
2022/08/05 04:46:31;;;;;;;9.88;7.10;;;18.50;99.90;;;;;;5069890;28;20036;-52
2022/08/05 04:48:56;;;;;;;10.48;6.22;;;18.50;99.90;;;;;;5053267;28;20094;-50
2022/08/05 04:51:22;;;;;;;11.65;6.30;;;18.50;99.90;;;;;;5071543;28;20044;-49
2022/08/05 04:53:47;;;;;;;9.32;5.70;;;18.50;99.90;;;;;;5071073;28;20032;-48
2022/08/05 04:56:13;;;;;;;7.85;6.00;;;18.50;99.90;;;;;;5069861;28;20037;-49
2022/08/05 04:58:39;;;;;;;;;;;18.50;99.90;;;;;;5071706;28;20080;-50
2022/08/05 05:01:05;;;;;;;6.18;4.97;;;18.50;99.90;;;;;;5087508;28;19970;-49
2022/08/05 05:03:31;;;;;;;;;;;18.50;99.90;;;;;;5058096;28;20044;-53
2022/08/05 05:05:56;;;;;;;13.90;5.53;;;18.40;99.90;;;;;;5070174;28;19927;-50
2022/08/05 05:08:22;;;;;;;10.15;5.55;;;18.50;99.90;;;;;;5080078;28;20116;-48
2022/08/05 05:10:47;;;;;;;11.65;5.13;;;18.50;99.90;;;;;;5075091;28;20114;-50
2022/08/05 05:13:15;;;;;;;10.27;5.32;;;18.50;99.90;;;;;;5070383;28;20055;-47
2022/08/05 05:15:42;;;;;;;7.82;5.60;;;18.50;99.90;;;;;;5082969;28;20067;-49
2022/08/05 05:18:08;;;;;;;6.93;4.95;;;18.40;99.90;;;;;;5088227;28;20074;-53
2022/08/05 05:20:34;;;;;;;9.25;4.82;;;18.50;99.90;;;;;;5089206;28;20517;-50
2022/08/05 05:23:03;;;;;;;5.70;5.18;;;18.50;99.90;;;;;;5086477;28;20033;-53
2022/08/05 05:25:29;;;;;;;7.55;5.60;;;18.50;99.90;;;;;;5084723;28;20036;-54
2022/08/05 05:27:55;;;;;;;11.13;6.20;;;18.40;99.90;;;;;;5086828;28;20436;-50
2022/08/05 05:30:21;;;;;;;7.65;4.78;;;18.50;99.90;;;;;;5079906;28;20031;-53
2022/08/05 05:32:47;;;;;;;7.05;5.55;;;18.40;99.90;;;;;;5079768;28;20040;-50
2022/08/05 05:35:12;;;;;;;8.82;5.45;;;18.40;99.90;;;;;;5090691;28;20081;-52
2022/08/05 05:37:52;;;;;;;11.40;5.03;;;18.40;99.90;;;;;;5089256;28;20036;-53
2022/08/05 05:40:21;;;;;;;10.38;4.05;;;18.50;99.90;;;;;;5074370;28;20040;-54
2022/08/05 05:42:47;;;;;;;8.75;4.07;;;18.50;99.90;;;;;;5088176;28;20037;-51
2022/08/05 05:45:14;;;;;;;6.45;3.83;;;18.50;99.90;;;;;;5073161;28;20044;-53
2022/08/05 05:47:40;;;;;;;6.05;4.22;;;18.50;99.90;;;;;;5074467;28;20180;-50
2022/08/05 05:50:06;;;;;;;;;;;18.50;99.90;;;;;;5081776;28;20071;-50
2022/08/05 05:52:32;;;;;;;6.22;3.53;;;18.50;99.90;;;;;;5090586;28;20012;-49
2022/08/05 05:54:59;;;;;;;7.85;4.75;;;18.50;99.90;;;;;;5072489;28;20064;-50
2022/08/05 05:57:25;;;;;;;7.90;3.95;;;18.50;99.90;;;;;;5086893;28;20052;-49
2022/08/05 05:59:51;;;;;;;9.60;4.88;;;18.50;99.90;;;;;;5078128;28;20039;-51
2022/08/05 06:02:16;;;;;;;5.82;3.60;;;18.50;99.90;;;;;;5085149;28;20078;-52
2022/08/05 06:04:42;;;;;;;7.28;4.43;;;18.60;99.90;;;;;;5093105;28;20036;-49
2022/08/05 06:07:08;;;;;;;6.38;3.00;;;18.60;99.90;;;;;;5076153;28;20072;-50
2022/08/05 06:09:33;;;;;;;6.70;4.05;;;18.60;99.90;;;;;;5092711;28;20040;-52
2022/08/05 06:11:59;;;;;;;10.10;4.40;;;18.60;99.90;;;;;;5091684;28;20114;-50
2022/08/05 06:14:24;;;;;;;6.82;4.28;;;18.60;99.90;;;;;;5086821;28;20044;-51
2022/08/05 06:16:50;;;;;;;8.18;3.58;;;18.60;99.90;;;;;;5078543;28;20515;-49
2022/08/05 06:19:15;;;;;;;4.30;3.55;;;18.60;99.90;;;;;;5079952;28;20515;-52
2022/08/05 06:21:41;;;;;;;;;;;18.60;99.90;;;;;;5073114;28;20040;-51
2022/08/05 06:24:07;;;;;;;8.27;3.80;;;18.60;99.90;;;;;;5087814;28;19974;-52
2022/08/05 06:26:33;;;;;;;7.35;4.55;;;18.60;99.90;;;;;;5077368;28;20033;-48
2022/08/05 06:28:59;;;;;;;7.63;4.32;;;18.60;99.90;;;;;;5076593;28;20461;-54
2022/08/05 06:31:24;;;;;;;9.85;3.35;;;18.60;99.90;;;;;;5088513;28;20040;-54
2022/08/05 06:33:50;;;;;;;7.68;3.58;;;18.70;99.90;;;;;;5083310;28;20046;-51
2022/08/05 06:36:15;;;;;;;9.15;4.50;;;18.70;99.90;;;;;;5082027;28;20572;-51
2022/08/05 06:38:41;;;;;;;7.22;3.45;;;18.70;99.90;;;;;;5080970;28;20056;-51
2022/08/05 06:41:07;;;;;;;10.65;4.60;;;18.80;99.90;;;;;;5072984;28;20031;-52
2022/08/05 06:43:32;;;;;;;4.50;2.75;;;18.80;99.90;;;;;;5072743;28;20169;-51
2022/08/05 06:45:58;;;;;;;13.02;4.63;;;18.80;99.90;;;;;;5073390;28;20182;-48
2022/08/05 06:48:24;;;;;;;5.68;4.10;;;18.80;99.90;;;;;;5072750;28;20047;-50
2022/08/05 06:50:49;;;;;;;5.25;3.50;;;18.90;99.90;;;;;;5092120;28;20036;-50
2022/08/05 06:53:15;;;;;;;;;;;18.90;99.90;;;;;;5087875;28;20417;-51
2022/08/05 06:55:41;;;;;;;4.90;3.42;;;18.90;99.90;;;;;;5080764;28;19916;-54
2022/08/05 06:58:06;;;;;;;;;;;18.90;99.90;;;;;;5076412;28;20123;-53
2022/08/05 07:00:32;;;;;;;7.78;3.28;;;18.90;99.90;;;;;;5075343;28;20046;-49
2022/08/05 07:02:58;;;;;;;9.35;3.58;;;18.90;99.90;;;;;;5092267;28;20085;-49
2022/08/05 07:05:24;;;;;;;7.20;3.15;;;18.90;99.90;;;;;;5092354;28;20036;-53
2022/08/05 07:07:50;;;;;;;5.57;3.60;;;18.90;99.90;;;;;;5091873;28;20044;-52
2022/08/05 07:10:15;;;;;;;6.00;3.00;;;18.90;99.90;;;;;;5092573;28;20036;-49
2022/08/05 07:18:30;;;;;;;8.63;3.75;;;19.00;99.90;;;;;;5029055;28;20499;-53
2022/08/05 07:20:55;;;;;;;7.50;4.15;;;19.00;99.90;;;;;;5029177;28;20042;-49
2022/08/05 07:23:21;;;;;;;;;;;19.00;99.90;;;;;;5029303;28;20120;-49
2022/08/05 07:25:47;;;;;;;7.35;4.35;;;19.10;99.90;;;;;;5028927;28;20405;-50
2022/08/05 07:28:12;;;;;;;8.02;3.60;;;19.10;99.90;;;;;;5029101;28;20056;-50
2022/08/05 07:30:38;;;;;;;7.50;3.50;;;19.20;99.90;;;;;;5028868;28;20410;-50
2022/08/05 07:33:05;;;;;;;9.68;3.55;;;19.20;99.90;;;;;;5028490;28;20045;-50
2022/08/05 07:35:30;;;;;;;5.55;3.25;;;19.20;99.90;;;;;;5028897;28;20133;-49
2022/08/05 07:37:56;;;;;;;4.85;3.38;;;19.30;99.90;;;;;;5013055;28;20744;-52
2022/08/05 07:40:21;;;;;;;;;;;19.30;99.90;;;;;;5029070;28;20121;-50
2022/08/05 07:42:48;;;;;;;4.72;3.08;;;19.40;99.90;;;;;;5027898;28;20378;-48
2022/08/05 07:45:14;;;;;;;3.85;2.40;;;19.50;99.90;;;;;;5027965;28;20112;-48
2022/08/05 07:47:40;;;;;;;7.13;2.60;;;19.60;99.90;;;;;;5071076;28;20113;-49
2022/08/05 07:50:06;;;;;;;;;;;19.60;99.90;;;;;;5071597;28;20040;-52
2022/08/05 07:52:40;;;;;;;7.45;2.40;;;19.70;99.90;;;;;;5072412;28;20322;-49
2022/08/05 07:55:06;;;;;;;4.65;2.17;;;19.80;99.90;;;;;;5069643;28;20406;-48
2022/08/05 07:57:32;;;;;;;7.15;1.98;;;19.80;99.90;;;;;;5071442;28;20048;-52
2022/08/05 07:59:57;;;;;;;5.63;2.65;;;19.80;99.90;;;;;;5071771;28;20505;-52
2022/08/05 08:02:26;;;;;;;;;;;19.90;99.90;;;;;;5076712;28;20111;-46
2022/08/05 08:04:52;;;;;;;4.20;1.95;;;20.00;99.90;;;;;;5076316;28;19999;-51
2022/08/05 08:07:19;;;;;;;7.18;2.55;;;20.10;99.90;;;;;;5073577;28;20107;-53
2022/08/05 08:09:45;;;;;;;4.45;1.95;;;20.20;99.90;;;;;;5075715;28;20218;-53
2022/08/05 08:12:14;;;;;;;;;;;20.20;99.90;;;;;;5074212;28;20530;-55
2022/08/05 08:14:44;;;;;;;5.00;1.60;;;20.20;99.90;;;;;;5075132;28;20295;-52
2022/08/05 08:17:10;;;;;;;7.20;2.22;;;20.20;99.90;;;;;;5085668;28;20064;-52
2022/08/05 08:19:39;;;;;;;;;;;20.20;99.90;;;;;;5084777;28;20093;-50
2022/08/05 08:22:06;;;;;;;2.83;1.20;;;20.20;99.90;;;;;;5089703;28;19923;-51
2022/08/05 08:24:32;;;;;;;5.25;1.25;;;20.30;99.90;;;;;;5088467;28;20036;-55
2022/08/05 08:26:57;;;;;;;5.60;1.58;;;20.30;99.90;;;;;;5087404;28;20036;-49
2022/08/05 08:29:23;;;;;;;4.32;1.05;;;20.30;99.90;;;;;;5088069;28;20468;-50
2022/08/05 08:31:49;;;;;;;;;;;20.30;99.90;;;;;;5090408;28;20028;-51
2022/08/05 08:34:16;;;;;;;3.72;0.80;;;20.30;99.90;;;;;;5078662;28;20348;-48
2022/08/05 08:36:41;;;;;;;3.38;0.85;;;20.30;99.90;;;;;;5076984;28;20087;-51
2022/08/05 08:39:07;;;;;;;6.60;0.60;;;20.30;99.90;;;;;;5053448;28;20036;-50
2022/08/05 08:41:33;;;;;;;;;;;20.40;99.90;;;;;;5089241;28;20032;-50
2022/08/05 08:44:00;;;;;;;4.38;0.85;;;20.30;99.90;;;;;;5063896;28;19924;-51
2022/08/05 08:46:31;;;;;;;3.20;1.15;;;20.40;99.90;;;;;;5069686;28;20037;-50
2022/08/05 08:48:58;;;;;;;6.55;1.25;;;20.40;99.90;;;;;;5070533;28;20043;-49
2022/08/05 08:51:27;;;;;;;2.20;0.63;;;20.50;99.90;;;;;;5075653;28;20041;-50
2022/08/05 08:53:53;;;;;;;6.18;0.68;;;20.60;99.90;;;;;;5086380;28;20449;-50
2022/08/05 08:56:20;;;;;;;;;;;20.60;99.90;;;;;;5079708;28;20163;-50
2022/08/05 08:58:46;;;;;;;5.33;0.60;;;20.70;99.90;;;;;;5081617;28;19936;-52
2022/08/05 09:01:12;;;;;;;;;;;20.70;99.90;;;;;;5077495;28;20028;-51
2022/08/05 09:03:37;;;;;;;4.40;0.50;;;20.80;99.90;;;;;;5072173;28;19924;-52
2022/08/05 09:06:03;;;;;;;;;;;20.90;99.90;;;;;;5080295;28;20124;-52
2022/08/05 09:08:29;;;;;;;3.05;0.50;;;20.90;99.90;;;;;;5076815;28;19923;-50
2022/08/05 09:10:54;;;;;;;;;;;21.00;99.90;;;;;;5077779;28;20040;-51
2022/08/05 09:13:20;;;;;;;2.38;0.60;;;21.10;99.90;;;;;;5056151;28;19978;-48
2022/08/05 09:15:46;;;;;;;;;;;21.10;99.90;;;;;;5071620;28;20039;-52
2022/08/05 09:18:12;;;;;;;3.67;0.40;;;21.10;99.90;;;;;;5077884;28;19943;-52
2022/08/05 09:20:37;;;;;;;;;;;21.20;99.90;;;;;;5077148;28;20025;-50
2022/08/05 09:23:10;;;;;;;3.85;0.52;;;21.20;99.90;;;;;;5074864;28;19931;-51
2022/08/05 09:25:41;;;;;;;7.45;0.55;;;21.20;99.90;;;;;;5073235;28;20124;-53
2022/08/05 09:28:19;;;;;;;2.28;0.38;;;21.20;99.90;;;;;;5080358;28;20048;-56
2022/08/05 09:30:53;;;;;;;2.25;0.45;;;21.20;99.90;;;;;;5081680;28;20467;-54
2022/08/05 09:33:19;;;;;;;4.82;0.73;;;21.20;99.90;;;;;;5086171;28;20119;-53
2022/08/05 09:35:52;;;;;;;;;;;21.30;99.90;;;;;;5082916;28;20120;-51
2022/08/05 09:38:18;;;;;;;3.85;0.40;;;21.40;99.90;;;;;;5077779;28;20608;-52
2022/08/05 09:40:44;;;;;;;1.70;0.20;;;21.50;99.90;;;;;;5053732;28;20093;-50
2022/08/05 09:43:24;;;;;;;;;;;21.60;99.90;;;;;;5068261;28;20481;-52
2022/08/05 09:45:50;;;;;;;3.65;0.40;;;21.70;99.90;;;;;;5070284;28;19916;-52
2022/08/05 09:48:41;;;;;;;;;;;21.80;99.90;;;;;;5067851;28;20489;-51
2022/08/05 09:51:10;;;;;;;1.67;0.20;;;22.00;99.90;;;;;;5059005;28;19928;-50
2022/08/05 09:53:50;;;;;;;5.43;0.73;;;22.10;99.90;;;;;;5071730;28;20044;-51
2022/08/05 09:56:28;;;;;;;2.55;0.10;;;22.30;99.90;;;;;;5066652;28;20040;-51
2022/08/05 09:59:02;;;;;;;1.23;0.20;;;22.30;99.90;;;;;;5065557;28;20039;-51
2022/08/05 10:01:28;;;;;;;3.50;0.30;;;22.30;99.50;;;;;;5068841;28;20040;-51
2022/08/05 10:04:01;;;;;;;4.65;0.45;;;22.40;99.60;;;;;;5047929;28;20033;-50
2022/08/05 10:06:27;;;;;;;1.27;0.15;;;22.30;99.60;;;;;;5070533;28;20440;-50
2022/08/05 10:08:53;;;;;;;;;;;22.30;99.50;;;;;;5082869;28;20036;-53
2022/08/05 10:11:18;;;;;;;8.15;0.40;;;22.30;98.80;;;;;;5077880;28;19916;-53
2022/08/05 10:13:44;;;;;;;;;;;22.40;99.20;;;;;;5087934;28;20101;-52
2022/08/05 10:16:29;;;;;;;5.43;0.40;;;22.30;98.30;;;;;;5081879;28;19916;-50
2022/08/05 10:18:55;;;;;;;2.85;0.30;;;22.50;99.00;;;;;;5084590;28;20044;-51
2022/08/05 10:21:21;;;;;;;;;;;22.60;99.50;;;;;;5073797;28;20378;-53
2022/08/05 10:23:47;;;;;;;1.30;0.20;;;22.70;98.10;;;;;;5080511;28;19920;-53
2022/08/05 10:26:13;;;;;;;2.08;0.20;;;22.80;97.80;;;;;;5083232;28;20052;-53
2022/08/05 10:28:40;;;;;;;3.60;0.10;;;22.80;96.80;;;;;;5084096;28;20051;-51
2022/08/05 10:31:06;;;;;;;2.92;0.20;;;22.90;96.30;;;;;;5088301;28;20126;-53
2022/08/05 10:33:33;;;;;;;1.70;0.10;;;23.10;96.50;;;;;;5092296;28;20060;-50
2022/08/05 10:36:02;;;;;;;1.42;0.10;;;23.20;95.80;;;;;;5092803;28;20076;-51
2022/08/05 10:38:29;;;;;;;1.95;0.10;;;23.40;95.60;;;;;;5092139;28;20402;-50
2022/08/05 10:41:12;;;;;;;2.38;0.43;;;23.50;95.10;;;;;;5092393;28;20036;-53
2022/08/05 10:44:01;;;;;;;1.38;0.20;;;23.60;94.30;;;;;;5092109;28;20047;-55
2022/08/05 10:46:50;;;;;;;1.55;0.10;;;23.50;93.00;;;;;;5071974;28;20048;-51
2022/08/05 10:49:16;;;;;;;1.60;0.10;;;23.50;92.10;;;;;;5072641;28;20524;-50
2022/08/05 10:51:47;;;;;;;4.85;0.52;;;23.50;92.30;;;;;;5087953;28;20513;-54
2022/08/05 10:54:14;;;;;;;2.20;0.55;;;23.60;91.40;;;;;;5078938;28;20047;-52
2022/08/05 10:56:45;;;;;;;0.40;0.10;;;23.70;90.80;;;;;;5071976;28;20043;-49
2022/08/05 10:59:18;;;;;;;5.45;0.15;;;23.80;90.10;;;;;;5072612;28;20041;-49
2022/08/05 11:01:45;;;;;;;3.40;0.03;;;23.90;89.20;;;;;;5089425;28;20043;-51
2022/08/05 11:04:16;;;;;;;0.52;0.10;;;24.00;90.30;;;;;;5090844;28;20040;-51
2022/08/05 11:07:00;;;;;;;2.42;0.22;;;24.00;89.60;;;;;;5092162;28;20036;-52
2022/08/05 11:09:43;;;;;;;2.50;0.10;;;24.10;86.30;;;;;;5074139;28;20043;-54
2022/08/05 11:12:39;;;;;;;0.50;0.10;;;24.20;87.60;;;;;;5072002;28;20036;-51
2022/08/05 11:15:19;;;;;;;2.17;0.10;;;24.20;84.70;;;;;;5075991;28;20045;-54
2022/08/05 11:17:46;;;;;;;1.13;0.00;;;24.30;85.50;;;;;;5083226;28;20032;-55
2022/08/05 11:20:35;;;;;;;1.88;0.30;;;24.30;85.80;;;;;;5085537;28;20044;-54
2022/08/05 11:23:24;;;;;;;2.35;0.10;;;24.30;83.50;;;;;;5088284;28;20047;-54
2022/08/05 11:26:20;;;;;;;2.90;0.10;;;24.40;84.00;;;;;;5074857;28;20029;-54
2022/08/05 11:28:52;;;;;;;2.20;0.30;;;24.40;82.70;;;;;;5071960;28;20048;-55
2022/08/05 11:31:30;;;;;;;3.40;0.22;;;24.50;83.40;;;;;;5087952;28;20404;-54
2022/08/05 11:34:04;;;;;;;1.80;0.10;;;24.60;81.00;;;;;;5090799;28;20032;-51
2022/08/05 11:36:43;;;;;;;1.45;0.10;;;24.60;79.60;;;;;;5092074;28;20074;-51
2022/08/05 11:39:13;;;;;;;0.20;0.03;;;24.70;80.40;;;;;;5090499;28;20059;-50
2022/08/05 11:41:40;;;;;;;2.03;0.10;;;24.70;80.30;;;;;;5079202;28;20032;-51
2022/08/05 11:44:11;;;;;;;1.67;0.10;;;24.80;78.70;;;;;;5091654;28;20047;-52
2022/08/05 11:46:47;;;;;;;0.57;0.00;;;24.80;77.10;;;;;;5078147;28;20535;-53
2022/08/05 11:49:14;;;;;;;0.30;0.00;;;24.80;73.60;;;;;;5071202;28;20516;-50
2022/08/05 11:51:44;;;;;;;1.48;0.10;;;24.80;74.50;;;;;;5077440;28;20493;-53
2022/08/05 11:54:12;;;;;;;0.88;0.00;;;24.90;73.90;;;;;;5072267;28;20037;-53
2022/08/05 11:56:50;;;;;;;0.75;0.00;;;24.90;73.60;;;;;;5081060;28;20099;-50
2022/08/05 11:59:18;;;;;;;0.50;0.00;;;24.90;71.80;;;;;;5071189;28;20041;-52
2022/08/05 12:01:54;;;;;;;1.70;0.00;;;24.90;71.00;;;;;;5082678;28;20534;-51
2022/08/05 12:04:20;;;;;;;4.13;0.20;;;24.80;69.10;;;;;;5089682;28;20036;-54
2022/08/05 12:06:46;;;;;;;1.15;0.10;;;24.70;70.20;;;;;;5091152;28;20040;-50
2022/08/05 12:09:22;;;;;;;3.85;0.10;;;24.70;70.80;;;;;;5081529;28;20074;-58
2022/08/05 12:11:48;;;;;;;1.95;0.10;;;24.70;69.10;;;;;;5071783;28;20125;-58
2022/08/05 12:14:13;;;;;;;1.13;0.00;;;24.60;69.00;;;;;;5077081;28;20071;-54
2022/08/05 12:16:41;;;;;;;0.65;0.10;;;24.70;68.90;;;;;;5090734;28;20454;-55
2022/08/05 12:19:10;;;;;;;0.70;0.00;;;24.60;67.40;;;;;;5084780;28;20040;-51
2022/08/05 12:21:48;;;;;;;6.00;0.30;;;24.60;66.90;;;;;;5075213;28;20107;-55
2022/08/05 12:24:17;;;;;;;2.50;0.20;;;24.70;67.60;;;;;;5090451;28;20119;-54
2022/08/05 12:26:45;;;;;;;2.65;0.03;;;24.60;67.80;;;;;;5054719;28;20039;-51
2022/08/05 12:29:13;;;;;;;2.83;0.10;;;24.50;67.30;;;;;;5090382;28;20130;-53
2022/08/05 12:31:43;;;;;;;1.75;0.00;;;24.60;67.50;;;;;;5089576;28;20369;-52
2022/08/05 12:34:09;;;;;;;4.07;0.03;;;24.70;66.90;;;;;;5070172;28;20036;-57
2022/08/05 12:36:36;;;;;;;1.17;0.17;;;24.70;67.90;;;;;;5075708;28;20078;-57
2022/08/05 12:39:04;;;;;;;3.13;0.32;;;24.80;69.20;;;;;;5070705;28;20115;-54
2022/08/05 12:41:35;;;;;;;0.10;0.00;;;24.90;68.70;;;;;;5088199;28;20046;-50
2022/08/05 12:44:07;;;;;;;0.45;0.10;;;25.10;67.30;;;;;;5090404;28;20051;-53
2022/08/05 12:46:34;;;;;;;0.40;0.00;;;25.20;68.30;;;;;;5089563;28;20050;-52
2022/08/05 12:49:09;;;;;;;0.90;0.10;;;25.20;67.30;;;;;;5090580;28;20048;-52
2022/08/05 12:51:54;;;;;;;4.97;0.10;;;25.20;66.70;;;;;;5088952;28;20135;-51
2022/08/05 12:54:31;;;;;;;4.00;0.10;;;25.10;65.90;;;;;;5070780;28;20044;-52
2022/08/05 12:56:57;;;;;;;0.82;0.13;;;25.00;66.90;;;;;;5079508;28;20046;-51
2022/08/05 12:59:42;;;;;;;2.17;0.00;;;24.90;67.70;;;;;;5087915;28;20040;-48
2022/08/05 13:02:09;;;;;;;0.95;0.00;;;24.70;68.60;;;;;;5069905;28;20063;-52
2022/08/05 13:04:40;;;;;;;1.30;0.10;;;24.60;69.00;;;;;;5071089;28;20055;-53
2022/08/05 13:07:11;;;;;;;1.67;0.10;;;24.50;69.50;;;;;;5070292;28;20494;-52